createdAt,value
2019-03-31T00:01:44.911Z,4.28
2019-03-31T00:04:20.599Z,4.34
2019-03-31T00:06:55.558Z,4.17
2019-03-31T00:09:29.358Z,4.07
2019-03-31T00:12:04.298Z,4.08
2019-03-31T00:14:38.881Z,3.98
2019-03-31T00:17:13.265Z,3.88
2019-03-31T00:19:48.828Z,3.93
2019-03-31T00:22:23.680Z,3.91
2019-03-31T00:24:58.029Z,3.92
2019-03-31T00:27:32.744Z,3.88
2019-03-31T00:30:07.977Z,3.82
2019-03-31T00:32:42.226Z,3.71
2019-03-31T00:35:16.588Z,3.68
2019-03-31T00:37:51.053Z,3.68
2019-03-31T00:40:25.607Z,3.60
2019-03-31T00:42:59.715Z,3.57
2019-03-31T00:45:34.134Z,3.50
2019-03-31T00:48:07.650Z,3.52
2019-03-31T00:50:41.912Z,3.48
2019-03-31T00:53:16.275Z,3.42
2019-03-31T00:55:51.542Z,3.33
2019-03-31T00:58:26.305Z,3.35
2019-03-31T01:01:20.080Z,3.36
2019-03-31T01:03:54.261Z,3.26
2019-03-31T01:06:29.504Z,3.30
2019-03-31T01:09:08.039Z,3.27
2019-03-31T01:11:42.172Z,3.17
2019-03-31T01:14:15.796Z,3.16
2019-03-31T01:16:48.671Z,3.18
2019-03-31T01:19:22.897Z,3.02
2019-03-31T01:21:57.310Z,3.02
2019-03-31T01:24:31.967Z,3.08
2019-03-31T01:27:09.616Z,3.06
2019-03-31T01:29:44.057Z,3.02
2019-03-31T01:32:17.965Z,2.98
2019-03-31T01:34:52.844Z,3.00
2019-03-31T01:37:26.875Z,2.99
2019-03-31T01:40:01.328Z,2.95
2019-03-31T01:42:35.706Z,2.86
2019-03-31T01:45:10.288Z,2.75
2019-03-31T01:47:44.132Z,2.69
2019-03-31T01:50:18.703Z,2.78
2019-03-31T01:52:52.650Z,2.74
2019-03-31T01:55:26.918Z,2.73
2019-03-31T01:58:01.062Z,2.74
2019-03-31T02:00:41.354Z,2.75
2019-03-31T02:03:16.647Z,2.73
2019-03-31T02:05:50.140Z,2.58
2019-03-31T02:08:24.292Z,2.68
2019-03-31T02:11:09.188Z,2.71
2019-03-31T02:13:44.142Z,2.69
2019-03-31T02:16:18.726Z,2.58
2019-03-31T02:18:53.438Z,2.56
2019-03-31T02:21:28.045Z,2.53
2019-03-31T02:24:02.290Z,2.43
2019-03-31T02:26:36.925Z,2.41
2019-03-31T02:29:12.335Z,2.37
2019-03-31T02:31:46.476Z,2.39
2019-03-31T02:34:20.040Z,2.33
2019-03-31T02:36:53.256Z,2.26
2019-03-31T02:39:27.428Z,2.30
2019-03-31T02:42:01.922Z,2.25
2019-03-31T02:44:37.123Z,2.20
2019-03-31T02:47:11.833Z,2.18
2019-03-31T02:49:46.899Z,2.28
2019-03-31T02:52:21.215Z,2.46
2019-03-31T02:54:55.948Z,2.45
2019-03-31T02:57:30.811Z,2.35
2019-03-31T03:00:05.971Z,2.20
2019-03-31T03:02:42.877Z,2.24
2019-03-31T03:05:20.391Z,2.16
2019-03-31T03:07:57.325Z,2.09
2019-03-31T03:10:33.669Z,2.05
2019-03-31T03:13:12.863Z,2.10
2019-03-31T03:16:27.825Z,2.05
2019-03-31T03:19:03.530Z,2.01
2019-03-31T03:21:39.224Z,2.02
2019-03-31T03:24:13.877Z,2.05
2019-03-31T03:26:48.374Z,2.00
2019-03-31T03:29:22.222Z,1.98
2019-03-31T03:31:56.241Z,1.87
2019-03-31T03:34:30.118Z,1.81
2019-03-31T03:37:06.063Z,1.81
2019-03-31T03:39:41.445Z,1.79
2019-03-31T03:42:16.533Z,1.71
2019-03-31T03:44:50.379Z,1.72
2019-03-31T03:47:25.686Z,1.60
2019-03-31T03:50:00.647Z,1.64
2019-03-31T03:52:37.711Z,1.75
2019-03-31T03:55:15.242Z,1.65
2019-03-31T03:57:51.183Z,1.62
2019-03-31T04:00:30.950Z,1.60
2019-03-31T04:03:08.279Z,1.62
2019-03-31T04:05:43.417Z,1.55
2019-03-31T04:08:26.178Z,1.37
2019-03-31T04:11:21.137Z,1.32
2019-03-31T04:13:52.800Z,1.37
2019-03-31T04:16:24.660Z,1.42
2019-03-31T04:18:59.372Z,1.35
2019-03-31T04:21:33.641Z,1.41
2019-03-31T04:24:08.620Z,1.35
2019-03-31T04:26:43.464Z,1.49
2019-03-31T04:29:17.655Z,1.26
2019-03-31T04:31:52.076Z,1.22
2019-03-31T04:34:27.031Z,1.21
2019-03-31T04:37:01.543Z,1.14
2019-03-31T04:40:18.688Z,1.16
2019-03-31T04:46:00.423Z,1.03
2019-03-31T04:48:35.918Z,1.05
2019-03-31T04:51:11.483Z,1.08
2019-03-31T04:53:45.329Z,1.04
2019-03-31T04:56:20.047Z,1.07
2019-03-31T04:58:54.572Z,1.04
2019-03-31T05:01:29.355Z,0.93
2019-03-31T05:04:05.368Z,0.90
2019-03-31T05:06:40.819Z,0.90
2019-03-31T05:09:15.557Z,0.98
2019-03-31T05:11:50.046Z,0.98
2019-03-31T05:14:25.101Z,1.01
2019-03-31T05:17:00.271Z,0.88
2019-03-31T05:19:35.005Z,0.97
2019-03-31T05:22:08.174Z,1.22
2019-03-31T05:24:42.777Z,1.40
2019-03-31T05:27:16.894Z,1.13
2019-03-31T05:29:51.453Z,0.99
2019-03-31T05:32:26.824Z,1.05
2019-03-31T05:35:02.366Z,1.00
2019-03-31T05:37:50.215Z,1.03
2019-03-31T05:40:13.017Z,1.11
2019-03-31T05:42:47.701Z,1.05
2019-03-31T05:45:22.589Z,1.05
2019-03-31T05:47:56.604Z,1.09
2019-03-31T05:50:31.319Z,1.19
2019-03-31T05:53:05.011Z,1.25
2019-03-31T05:55:40.808Z,1.33
2019-03-31T05:58:15.520Z,1.29
2019-03-31T06:00:50.559Z,1.55
2019-03-31T06:03:24.706Z,1.62
2019-03-31T06:06:11.882Z,1.79
2019-03-31T06:08:49.272Z,1.96
2019-03-31T06:11:24.345Z,2.02
2019-03-31T06:14:00.665Z,1.93
2019-03-31T06:16:36.915Z,2.14
2019-03-31T06:19:14.040Z,2.25
2019-03-31T06:21:52.372Z,2.74
2019-03-31T06:24:26.890Z,2.95
2019-03-31T06:27:00.648Z,2.58
2019-03-31T06:29:36.319Z,2.79
2019-03-31T06:32:10.430Z,2.81
2019-03-31T06:34:47.739Z,3.08
2019-03-31T06:37:21.021Z,3.30
2019-03-31T06:39:56.922Z,3.48
2019-03-31T06:42:31.898Z,3.69
2019-03-31T06:45:06.131Z,4.00
2019-03-31T06:47:41.226Z,4.17
2019-03-31T06:50:16.170Z,4.30
2019-03-31T06:52:50.462Z,4.41
2019-03-31T06:55:25.610Z,4.70
2019-03-31T06:58:01.607Z,4.89
2019-03-31T07:00:37.441Z,4.96
2019-03-31T07:03:14.406Z,5.07
2019-03-31T07:05:48.672Z,5.16
2019-03-31T07:08:23.288Z,5.42
2019-03-31T07:10:58.195Z,5.47
2019-03-31T07:13:35.228Z,5.69
2019-03-31T07:16:10.273Z,5.84
2019-03-31T07:18:45.759Z,5.87
2019-03-31T07:21:20.531Z,5.99
2019-03-31T07:23:55.683Z,6.27
2019-03-31T07:26:30.338Z,6.40
2019-03-31T07:29:08.238Z,6.34
2019-03-31T07:31:43.181Z,6.54
2019-03-31T07:34:18.592Z,6.70
2019-03-31T07:36:53.277Z,6.85
2019-03-31T07:39:29.566Z,6.90
2019-03-31T07:42:06.868Z,7.12
2019-03-31T07:44:43.670Z,7.36
2019-03-31T07:47:18.330Z,7.31
2019-03-31T07:49:52.636Z,7.46
2019-03-31T07:52:27.984Z,7.55
2019-03-31T07:55:03.018Z,7.31
2019-03-31T07:57:37.531Z,7.86
2019-03-31T08:00:15.375Z,8.12
2019-03-31T08:02:50.099Z,8.08
2019-03-31T08:05:32.839Z,8.29
2019-03-31T08:08:01.053Z,8.47
2019-03-31T08:10:37.112Z,8.50
2019-03-31T08:13:12.311Z,8.90
2019-03-31T08:15:50.789Z,9.03
2019-03-31T08:18:31.237Z,9.29
2019-03-31T08:21:05.746Z,9.38
2019-03-31T08:23:40.715Z,9.58
2019-03-31T08:26:15.619Z,10.29
2019-03-31T08:28:50.307Z,10.46
2019-03-31T08:31:26.512Z,10.48
2019-03-31T08:34:00.408Z,10.35
2019-03-31T08:36:35.445Z,10.42
2019-03-31T08:39:12.134Z,10.95
2019-03-31T08:41:46.010Z,10.69
2019-03-31T08:44:21.761Z,10.86
2019-03-31T08:46:56.483Z,11.25
2019-03-31T08:49:32.182Z,11.50
2019-03-31T08:52:06.633Z,12.20
2019-03-31T08:54:41.300Z,11.96
2019-03-31T08:57:17.866Z,12.31
2019-03-31T08:59:52.397Z,12.61
2019-03-31T09:02:28.775Z,12.89
2019-03-31T09:05:02.897Z,12.80
2019-03-31T09:07:37.082Z,13.13
2019-03-31T09:10:13.055Z,13.63
2019-03-31T09:12:48.682Z,14.27
2019-03-31T09:15:25.377Z,14.23
2019-03-31T09:17:59.485Z,14.13
2019-03-31T09:20:34.282Z,14.45
2019-03-31T09:23:09.154Z,14.57
2019-03-31T09:25:47.373Z,15.62
2019-03-31T09:28:21.173Z,15.66
2019-03-31T09:30:55.597Z,15.81
2019-03-31T09:33:30.186Z,15.99
2019-03-31T09:36:15.347Z,15.94
2019-03-31T09:38:41.195Z,16.63
2019-03-31T09:41:15.091Z,17.12
2019-03-31T09:43:49.720Z,16.84
2019-03-31T09:46:23.918Z,17.03
2019-03-31T09:48:59.102Z,17.44
2019-03-31T09:51:33.810Z,17.77
2019-03-31T09:54:11.077Z,16.73
2019-03-31T09:56:45.331Z,17.18
2019-03-31T09:59:19.199Z,17.75
2019-03-31T10:01:53.821Z,18.58
2019-03-31T10:04:28.316Z,17.70
2019-03-31T10:07:04.019Z,19.18
2019-03-31T10:09:38.414Z,19.71
2019-03-31T10:12:13.409Z,20.02
2019-03-31T10:14:48.840Z,20.12
2019-03-31T10:17:23.272Z,20.43
2019-03-31T10:19:57.717Z,20.63
2019-03-31T10:22:31.595Z,20.74
2019-03-31T10:25:06.341Z,21.54
2019-03-31T10:27:41.534Z,21.09
2019-03-31T10:30:20.580Z,21.17
2019-03-31T10:32:55.415Z,21.96
2019-03-31T10:35:30.529Z,22.23
2019-03-31T10:38:05.110Z,22.32
2019-03-31T10:40:40.460Z,22.00
2019-03-31T10:43:15.675Z,22.21
2019-03-31T10:45:49.991Z,22.64
2019-03-31T10:48:24.834Z,22.55
2019-03-31T10:51:00.383Z,23.05
2019-03-31T10:53:34.718Z,22.77
2019-03-31T10:56:10.041Z,23.32
2019-03-31T10:58:46.630Z,23.39
2019-03-31T11:01:22.129Z,23.16
2019-03-31T11:03:58.035Z,23.04
2019-03-31T11:06:32.340Z,23.63
2019-03-31T11:09:08.814Z,23.90
2019-03-31T11:11:44.233Z,24.45
2019-03-31T11:14:18.924Z,24.01
2019-03-31T11:16:52.872Z,23.90
2019-03-31T11:19:26.447Z,24.17
2019-03-31T11:22:28.650Z,24.32
2019-03-31T11:25:02.608Z,24.27
2019-03-31T11:27:36.855Z,24.04
2019-03-31T11:30:12.869Z,24.26
2019-03-31T11:32:47.791Z,23.28
2019-03-31T11:35:35.095Z,23.53
2019-03-31T11:38:09.332Z,24.10
2019-03-31T11:40:43.689Z,24.72
2019-03-31T11:43:17.842Z,24.96
2019-03-31T11:45:52.022Z,24.50
2019-03-31T11:48:26.999Z,24.56
2019-03-31T11:51:01.375Z,25.00
2019-03-31T11:53:35.899Z,25.52
2019-03-31T11:56:11.362Z,24.79
2019-03-31T11:58:45.898Z,25.28
2019-03-31T12:01:20.328Z,25.79
2019-03-31T12:03:55.137Z,24.79
2019-03-31T12:06:30.135Z,25.27
2019-03-31T12:09:06.164Z,25.29
2019-03-31T12:11:40.718Z,26.08
2019-03-31T12:14:14.673Z,25.98
2019-03-31T12:16:48.208Z,26.49
2019-03-31T12:19:22.633Z,25.57
2019-03-31T12:21:56.929Z,26.27
2019-03-31T12:24:31.947Z,23.34
2019-03-31T12:27:06.435Z,25.30
2019-03-31T12:29:41.808Z,27.14
2019-03-31T12:32:16.014Z,26.07
2019-03-31T12:34:49.821Z,27.16
2019-03-31T12:37:25.233Z,26.93
2019-03-31T12:39:59.785Z,27.08
2019-03-31T12:42:33.335Z,26.85
2019-03-31T12:45:07.356Z,27.23
2019-03-31T12:47:40.848Z,24.45
2019-03-31T12:50:16.194Z,25.32
2019-03-31T12:52:51.232Z,26.12
2019-03-31T12:55:27.762Z,26.89
2019-03-31T12:58:01.950Z,27.25
2019-03-31T13:00:36.910Z,27.12
2019-03-31T13:03:10.966Z,27.64
2019-03-31T13:05:47.781Z,27.57
2019-03-31T13:08:21.852Z,26.38
2019-03-31T13:10:56.784Z,26.98
2019-03-31T13:13:33.710Z,27.63
2019-03-31T13:16:07.992Z,26.59
2019-03-31T13:18:41.638Z,27.25
2019-03-31T13:21:15.324Z,25.78
2019-03-31T13:23:50.824Z,26.32
2019-03-31T13:26:25.674Z,27.74
2019-03-31T13:29:00.133Z,26.88
2019-03-31T13:31:37.456Z,28.08
2019-03-31T13:34:13.033Z,27.47
2019-03-31T13:36:47.624Z,27.90
2019-03-31T13:39:21.126Z,26.01
2019-03-31T13:41:55.160Z,25.96
2019-03-31T13:44:29.819Z,26.70
2019-03-31T13:47:04.721Z,26.76
2019-03-31T13:49:38.776Z,26.67
2019-03-31T13:52:12.773Z,26.75
2019-03-31T13:54:46.950Z,27.04
2019-03-31T13:57:21.749Z,26.69
2019-03-31T13:59:56.672Z,26.98
2019-03-31T14:02:31.880Z,27.28
2019-03-31T14:05:07.139Z,26.86
2019-03-31T14:07:42.662Z,25.39
2019-03-31T14:10:17.395Z,26.16
2019-03-31T14:12:51.770Z,26.36
2019-03-31T14:15:27.855Z,26.18
2019-03-31T14:18:02.286Z,26.06
2019-03-31T14:20:36.543Z,27.57
2019-03-31T14:23:14.167Z,27.04
2019-03-31T14:25:49.747Z,26.57
2019-03-31T14:28:27.852Z,26.91
2019-03-31T14:31:01.553Z,26.17
2019-03-31T14:33:35.564Z,27.09
2019-03-31T14:36:09.134Z,26.85
2019-03-31T14:38:47.284Z,26.60
2019-03-31T14:41:21.758Z,26.03
2019-03-31T14:43:55.374Z,26.04
2019-03-31T14:46:29.642Z,26.51
2019-03-31T14:49:05.841Z,27.49
2019-03-31T14:51:42.156Z,26.60
2019-03-31T14:54:18.058Z,26.38
2019-03-31T14:56:52.200Z,26.82
2019-03-31T14:59:28.136Z,25.53
2019-03-31T15:02:04.902Z,26.16
2019-03-31T15:04:40.150Z,25.54
2019-03-31T15:07:14.831Z,26.39
2019-03-31T15:09:49.565Z,26.25
2019-03-31T15:12:23.841Z,26.11
2019-03-31T15:14:59.778Z,26.81
2019-03-31T15:17:34.173Z,26.84
2019-03-31T15:20:09.893Z,26.60
2019-03-31T15:22:44.668Z,25.69
2019-03-31T15:25:19.777Z,25.96
2019-03-31T15:27:58.508Z,25.89
2019-03-31T15:30:33.248Z,26.70
2019-03-31T15:33:07.446Z,25.14
2019-03-31T15:35:41.784Z,23.69
2019-03-31T15:38:16.966Z,24.16
2019-03-31T15:40:51.022Z,23.71
2019-03-31T15:43:25.393Z,23.12
2019-03-31T15:46:01.050Z,23.95
2019-03-31T15:48:36.234Z,23.25
2019-03-31T15:51:10.212Z,22.58
2019-03-31T15:53:47.513Z,22.39
2019-03-31T15:56:21.734Z,22.61
2019-03-31T15:58:55.911Z,21.98
2019-03-31T16:01:29.352Z,22.01
2019-03-31T16:04:03.308Z,22.01
2019-03-31T16:06:36.735Z,21.36
2019-03-31T16:09:22.897Z,21.06
2019-03-31T16:11:53.533Z,20.41
2019-03-31T16:14:20.575Z,20.74
2019-03-31T16:16:53.175Z,20.28
2019-03-31T16:19:25.944Z,20.76
2019-03-31T16:21:59.746Z,19.89
2019-03-31T16:24:39.431Z,19.84
2019-03-31T16:27:12.981Z,19.80
2019-03-31T16:29:46.231Z,20.00
2019-03-31T16:32:19.455Z,19.40
2019-03-31T16:34:52.983Z,19.06
2019-03-31T16:37:27.294Z,19.07
2019-03-31T16:40:02.471Z,18.80
2019-03-31T16:42:35.887Z,18.55
2019-03-31T16:45:09.262Z,18.66
2019-03-31T16:47:42.643Z,17.86
2019-03-31T16:50:16.223Z,17.74
2019-03-31T16:52:52.496Z,17.91
2019-03-31T16:55:24.553Z,17.69
2019-03-31T16:57:57.571Z,17.58
2019-03-31T17:00:31.546Z,17.40
2019-03-31T17:03:05.303Z,17.28
2019-03-31T17:05:42.576Z,17.24
2019-03-31T17:08:16.585Z,17.18
2019-03-31T17:10:49.975Z,16.83
2019-03-31T17:13:31.039Z,16.71
2019-03-31T17:16:05.150Z,16.48
2019-03-31T17:18:38.863Z,16.44
2019-03-31T17:21:12.494Z,16.20
2019-03-31T17:23:48.558Z,15.85
2019-03-31T17:26:22.036Z,16.13
2019-03-31T17:28:55.640Z,15.86
2019-03-31T17:31:29.227Z,15.54
2019-03-31T17:34:02.745Z,15.59
2019-03-31T17:36:35.423Z,15.27
2019-03-31T17:39:09.754Z,15.15
2019-03-31T17:41:44.163Z,14.96
2019-03-31T17:44:18.040Z,14.87
2019-03-31T17:46:52.353Z,14.82
2019-03-31T17:49:26.595Z,14.76
2019-03-31T17:52:01.189Z,14.65
2019-03-31T17:54:35.262Z,14.41
2019-03-31T17:57:08.616Z,14.55
2019-03-31T17:59:41.596Z,14.32
2019-03-31T18:02:14.852Z,14.14
2019-03-31T18:04:48.290Z,14.08
2019-03-31T18:07:21.692Z,14.14
2019-03-31T18:09:55.104Z,13.82
2019-03-31T18:12:28.486Z,13.93
2019-03-31T18:15:02.388Z,13.84
2019-03-31T18:17:35.429Z,13.79
2019-03-31T18:20:09.832Z,13.54
2019-03-31T18:22:43.310Z,13.35
2019-03-31T18:25:17.586Z,13.23
2019-03-31T18:27:52.041Z,13.35
2019-03-31T18:30:25.197Z,13.24
2019-03-31T18:32:58.106Z,13.16
2019-03-31T18:35:31.457Z,13.05
2019-03-31T18:38:04.704Z,12.97
2019-03-31T18:40:38.059Z,12.79
2019-03-31T18:43:11.991Z,12.79
2019-03-31T18:45:46.496Z,12.51
2019-03-31T18:48:20.203Z,12.32
2019-03-31T18:50:53.690Z,12.12
2019-03-31T18:53:38.980Z,12.10
2019-03-31T18:56:32.027Z,11.95
2019-03-31T18:59:22.515Z,11.92
2019-03-31T19:02:13.465Z,11.82
2019-03-31T19:05:02.319Z,11.59
2019-03-31T19:07:53.542Z,11.46
2019-03-31T19:10:49.582Z,11.38
2019-03-31T19:13:31.837Z,11.32
2019-03-31T19:16:24.130Z,11.21
2019-03-31T19:19:06.773Z,11.26
2019-03-31T19:21:50.937Z,11.11
2019-03-31T19:24:41.257Z,10.99
2019-03-31T19:27:40.015Z,10.79
2019-03-31T19:30:42.086Z,10.71
2019-03-31T19:33:52.355Z,10.56
2019-03-31T19:36:38.284Z,10.47
2019-03-31T19:39:30.094Z,10.53
2019-03-31T19:42:22.032Z,10.29
2019-03-31T19:45:13.878Z,10.20
2019-03-31T19:47:58.786Z,10.19
2019-03-31T19:50:54.367Z,10.00
2019-03-31T19:53:46.673Z,9.95
2019-03-31T19:56:38.050Z,9.90
2019-03-31T19:59:27.243Z,9.79
2019-03-31T20:02:15.390Z,9.74
2019-03-31T20:05:05.968Z,9.74
2019-03-31T20:07:51.591Z,9.67
2019-03-31T20:10:46.681Z,9.52
2019-03-31T20:13:38.583Z,9.55
2019-03-31T20:16:33.631Z,9.32
2019-03-31T20:19:23.971Z,9.32
2019-03-31T20:22:09.956Z,9.28
2019-03-31T20:25:07.273Z,9.16
2019-03-31T20:27:59.704Z,9.17
2019-03-31T20:30:50.961Z,9.13
2019-03-31T20:33:40.607Z,9.09
2019-03-31T20:36:32.880Z,9.09
2019-03-31T20:39:17.660Z,8.93
2019-03-31T20:42:08.300Z,8.91
2019-03-31T20:44:44.637Z,8.86
2019-03-31T20:47:17.413Z,8.75
2019-03-31T20:49:50.587Z,8.71
2019-03-31T20:52:22.727Z,8.73
2019-03-31T20:54:56.101Z,8.56
2019-03-31T20:57:30.153Z,8.58
2019-03-31T21:00:03.578Z,8.51
2019-03-31T21:02:35.308Z,8.44
2019-03-31T21:05:08.016Z,8.27
2019-03-31T21:07:41.493Z,8.33
2019-03-31T21:10:15.971Z,8.27
2019-03-31T21:12:49.055Z,8.29
2019-03-31T21:15:47.615Z,8.09
2019-03-31T21:18:23.799Z,8.06
2019-03-31T21:21:21.667Z,8.10
2019-03-31T21:24:09.237Z,7.97
2019-03-31T21:27:09.183Z,7.94
2019-03-31T21:29:44.902Z,7.90
2019-03-31T21:32:20.301Z,7.94
2019-03-31T21:34:54.679Z,7.81
2019-03-31T21:37:28.385Z,7.68
2019-03-31T21:40:01.486Z,7.63
2019-03-31T21:42:34.350Z,7.63
2019-03-31T21:45:07.733Z,7.58
2019-03-31T21:47:41.582Z,7.59
2019-03-31T21:50:14.803Z,7.56
2019-03-31T21:52:48.235Z,7.67
2019-03-31T21:55:21.825Z,7.51
2019-03-31T21:57:55.396Z,7.43
2019-03-31T22:00:45.951Z,7.47
2019-03-31T22:03:19.631Z,7.36
2019-03-31T22:05:53.097Z,7.28
2019-03-31T22:08:24.526Z,7.34
2019-03-31T22:10:58.246Z,7.21
2019-03-31T22:13:32.306Z,7.17
2019-03-31T22:16:06.616Z,7.10
2019-03-31T22:18:42.177Z,7.06
2019-03-31T22:21:16.928Z,7.05
2019-03-31T22:23:57.857Z,6.96
2019-03-31T22:26:26.306Z,6.98
2019-03-31T22:29:00.149Z,6.89
2019-03-31T22:31:33.781Z,6.88
2019-03-31T22:34:05.214Z,6.68
2019-03-31T22:36:37.876Z,6.73
2019-03-31T22:39:11.136Z,6.64
2019-03-31T22:41:43.132Z,6.63
2019-03-31T22:44:15.977Z,6.58
2019-03-31T22:46:54.074Z,6.61
2019-03-31T22:49:21.575Z,6.58
2019-03-31T22:51:56.454Z,6.51
2019-03-31T22:54:30.402Z,6.50
2019-03-31T22:57:04.157Z,6.46
2019-03-31T22:59:37.197Z,6.45
2019-03-31T23:02:10.267Z,6.34
2019-03-31T23:04:43.503Z,6.28
2019-03-31T23:07:15.844Z,6.24
2019-03-31T23:09:48.289Z,6.33
2019-03-31T23:12:21.657Z,6.26
2019-03-31T23:14:55.436Z,6.22
2019-03-31T23:17:28.684Z,6.20
2019-03-31T23:20:04.743Z,6.16
2019-03-31T23:22:38.412Z,6.13
2019-03-31T23:25:11.345Z,6.15
2019-03-31T23:27:44.114Z,6.25
2019-03-31T23:30:16.638Z,6.13
2019-03-31T23:32:50.317Z,6.09
2019-03-31T23:35:24.330Z,6.11
2019-03-31T23:37:58.123Z,6.01
2019-03-31T23:40:31.689Z,6.01
2019-03-31T23:43:03.087Z,5.89
2019-03-31T23:45:35.967Z,5.82
2019-03-31T23:48:07.408Z,5.77
2019-03-31T23:50:40.841Z,5.75
2019-03-31T23:53:14.422Z,5.65
2019-03-31T23:55:46.477Z,5.79
2019-03-31T23:58:19.988Z,5.63
